Time;durP1;ratioP1;P1;durP2;ratioP2;P2;SDS_P1;SDS_P2;PMS_P1;PMS_P2;Temp;Humidity;BMP_temperature;BMP_pressure;BME280_temperature;BME280_humidity;BME280_pressure;Samples;Min_cycle;Max_cycle;Signal;HPM_P1;HPM_P2
2023/05/15 00:01:17;;;;;;;35.33;24.65;;;13.80;99.90;;;;;;4990595;28;20038;-58
2023/05/15 00:03:43;;;;;;;31.05;23.52;;;13.80;99.90;;;;;;5007123;28;20030;-58
2023/05/15 00:06:08;;;;;;;31.40;23.73;;;13.80;99.90;;;;;;5011703;28;20492;-58
2023/05/15 00:08:34;;;;;;;32.63;24.90;;;13.70;99.90;;;;;;4997591;28;20064;-58
2023/05/15 00:10:59;;;;;;;32.38;23.40;;;13.70;99.90;;;;;;5014031;28;20036;-58
2023/05/15 00:13:25;;;;;;;31.55;23.77;;;13.70;99.90;;;;;;5013178;28;20041;-58
2023/05/15 00:15:51;;;;;;;31.73;23.88;;;13.50;99.90;;;;;;5016534;28;20269;-58
2023/05/15 00:18:16;;;;;;;29.77;23.08;;;13.10;99.90;;;;;;5008585;28;20045;-58
2023/05/15 00:20:42;;;;;;;35.35;24.02;;;13.50;99.90;;;;;;5010363;28;20130;-58
2023/05/15 00:23:08;;;;;;;31.08;23.65;;;13.50;99.90;;;;;;5009782;28;20073;-58
2023/05/15 00:25:34;;;;;;;30.90;23.45;;;13.60;99.90;;;;;;5012477;28;20037;-58
2023/05/15 00:27:59;;;;;;;29.27;22.83;;;13.70;99.90;;;;;;5016064;28;20389;-57
2023/05/15 00:30:25;;;;;;;35.78;23.90;;;13.70;99.90;;;;;;5009272;28;20285;-58
2023/05/15 00:32:51;;;;;;;32.80;24.02;;;13.60;99.90;;;;;;5010154;28;20434;-58
2023/05/15 00:35:16;;;;;;;35.40;24.33;;;13.70;99.90;;;;;;5001905;28;20143;-57
2023/05/15 00:37:42;;;;;;;31.60;23.83;;;13.40;99.90;;;;;;5018748;28;20045;-57
2023/05/15 00:40:11;;;;;;;30.88;24.50;;;13.40;99.90;;;;;;5012751;28;20038;-58
2023/05/15 00:42:39;;;;;;;34.22;24.10;;;13.40;99.90;;;;;;5008709;28;20038;-57
2023/05/15 00:45:09;;;;;;;27.70;22.58;;;13.30;99.90;;;;;;5012225;28;20037;-58
2023/05/15 00:47:35;;;;;;;31.05;23.73;;;13.30;99.90;;;;;;5011014;28;20045;-58
2023/05/15 00:50:01;;;;;;;32.80;23.67;;;13.30;99.90;;;;;;5020028;28;20034;-58
2023/05/15 00:52:28;;;;;;;31.10;22.95;;;13.30;99.90;;;;;;5010659;28;20103;-57
2023/05/15 00:54:54;;;;;;;32.78;23.77;;;13.30;99.90;;;;;;5017262;28;20044;-57
2023/05/15 00:57:22;;;;;;;30.17;22.13;;;13.30;99.90;;;;;;5013984;28;20030;-57
2023/05/15 00:59:50;;;;;;;30.02;22.58;;;13.30;99.90;;;;;;5012668;28;20079;-57
2023/05/15 01:02:17;;;;;;;31.77;23.17;;;13.40;99.90;;;;;;5006909;28;20045;-58
2023/05/15 01:04:43;;;;;;;28.23;21.05;;;13.40;99.90;;;;;;5014844;28;20026;-58
2023/05/15 01:07:08;;;;;;;25.35;20.92;;;13.30;99.90;;;;;;5011115;28;20041;-57
2023/05/15 01:09:35;;;;;;;28.52;21.73;;;13.30;99.90;;;;;;5005448;28;20041;-58
2023/05/15 01:12:03;;;;;;;27.90;20.65;;;13.10;99.90;;;;;;5015384;28;20482;-57
2023/05/15 01:14:29;;;;;;;26.05;20.90;;;13.30;99.90;;;;;;5014052;28;20033;-57
2023/05/15 01:16:54;;;;;;;29.20;22.05;;;13.40;99.90;;;;;;5010159;28;20041;-57
2023/05/15 01:19:20;;;;;;;28.33;20.88;;;13.30;99.90;;;;;;5008465;28;20037;-58
2023/05/15 01:22:23;;;;;;;27.17;20.73;;;13.30;99.90;;;;;;5016978;28;20030;-57
2023/05/15 01:25:30;;;;;;;27.27;21.80;;;13.30;99.90;;;;;;4990974;28;20032;-57
2023/05/15 01:27:59;;;;;;;29.25;21.75;;;13.20;99.90;;;;;;5001549;28;20026;-58
2023/05/15 01:30:29;;;;;;;29.98;21.65;;;13.20;99.90;;;;;;5016256;28;20030;-57
2023/05/15 01:33:42;;;;;;;30.63;22.02;;;13.30;99.90;;;;;;5013064;28;20102;-58
2023/05/15 01:36:17;;;;;;;29.98;20.85;;;13.20;99.90;;;;;;4961950;28;20624;-57
2023/05/15 01:38:54;;;;;;;27.70;21.67;;;13.30;99.90;;;;;;5007836;28;20129;-58
2023/05/15 01:41:35;;;;;;;27.23;21.33;;;13.40;99.90;;;;;;5008960;28;20044;-58
2023/05/15 01:44:20;;;;;;;27.77;21.95;;;13.40;99.90;;;;;;5007126;28;20138;-58
2023/05/15 01:46:49;;;;;;;27.60;20.95;;;13.40;99.90;;;;;;5010592;28;20042;-57
2023/05/15 01:49:18;;;;;;;27.63;22.17;;;13.20;99.90;;;;;;5012836;28;20485;-58
2023/05/15 01:51:49;;;;;;;27.52;21.67;;;13.30;99.90;;;;;;5000103;28;20740;-57
2023/05/15 01:54:17;;;;;;;29.73;22.15;;;13.20;99.90;;;;;;5008879;28;20033;-57
2023/05/15 01:56:44;;;;;;;30.35;20.60;;;13.20;99.90;;;;;;5005821;28;20033;-57
2023/05/15 01:59:12;;;;;;;30.60;22.88;;;13.30;99.90;;;;;;5008108;28;20030;-58
2023/05/15 02:01:39;;;;;;;30.02;21.40;;;13.30;99.90;;;;;;5011831;28;20528;-58
2023/05/15 02:04:05;;;;;;;31.83;22.95;;;13.20;99.90;;;;;;5012640;28;20029;-57
2023/05/15 02:06:32;;;;;;;29.42;21.48;;;13.20;99.90;;;;;;5008172;28;20380;-57
2023/05/15 02:09:01;;;;;;;26.20;22.05;;;12.90;99.90;;;;;;5014055;28;20034;-57
2023/05/15 02:11:26;;;;;;;29.67;21.55;;;12.90;99.90;;;;;;5005394;28;20094;-57
2023/05/15 02:13:55;;;;;;;29.73;21.85;;;13.20;99.90;;;;;;5015751;28;20045;-57
2023/05/15 02:16:21;;;;;;;29.90;21.95;;;13.20;99.90;;;;;;5009081;28;20034;-57
2023/05/15 02:18:47;;;;;;;30.60;23.48;;;13.20;99.90;;;;;;5000780;28;20030;-57
2023/05/15 02:21:13;;;;;;;30.00;21.77;;;13.20;99.90;;;;;;5012400;28;20125;-57
2023/05/15 02:23:39;;;;;;;29.08;21.88;;;13.20;99.90;;;;;;5015852;28;20034;-57
2023/05/15 02:26:28;;;;;;;30.92;22.13;;;13.20;99.90;;;;;;5007568;28;20035;-57
2023/05/15 02:29:11;;;;;;;28.98;21.25;;;13.10;99.90;;;;;;5007245;28;20403;-57
2023/05/15 02:31:46;;;;;;;32.38;22.20;;;13.10;99.90;;;;;;5012084;28;20049;-57
2023/05/15 02:34:25;;;;;;;32.88;22.77;;;13.20;99.90;;;;;;4991828;28;20031;-57
2023/05/15 02:36:53;;;;;;;34.30;24.08;;;13.10;99.90;;;;;;5011491;28;20036;-57
2023/05/15 02:39:22;;;;;;;34.22;23.13;;;13.20;99.90;;;;;;5018722;28;20556;-57
2023/05/15 02:41:49;;;;;;;32.67;22.40;;;13.20;99.90;;;;;;5015416;28;20029;-57
2023/05/15 02:44:16;;;;;;;31.20;23.05;;;13.10;99.90;;;;;;5012869;28;20025;-64
2023/05/15 02:46:41;;;;;;;34.15;24.33;;;13.10;99.90;;;;;;5006922;28;20413;-65
2023/05/15 02:49:09;;;;;;;35.88;24.08;;;13.00;99.90;;;;;;5006367;28;20034;-64
2023/05/15 02:51:36;;;;;;;34.22;24.75;;;12.80;99.90;;;;;;5004997;28;20038;-64
2023/05/15 02:54:01;;;;;;;31.17;24.70;;;12.90;99.90;;;;;;5006465;28;20065;-64
2023/05/15 02:56:27;;;;;;;34.05;24.63;;;13.00;99.90;;;;;;5007328;28;20053;-64
2023/05/15 02:58:53;;;;;;;37.13;25.15;;;12.90;99.90;;;;;;5009633;28;20493;-65
2023/05/15 03:01:18;;;;;;;32.95;24.80;;;12.90;99.90;;;;;;5008395;28;20029;-65
2023/05/15 03:03:45;;;;;;;33.33;24.30;;;12.90;99.90;;;;;;5013341;28;20392;-65
2023/05/15 03:06:10;;;;;;;35.47;25.27;;;13.00;99.90;;;;;;5011156;28;20034;-63
2023/05/15 03:08:36;;;;;;;36.45;26.73;;;13.00;99.90;;;;;;5006869;28;20042;-65
2023/05/15 03:11:01;;;;;;;39.92;28.10;;;12.90;99.90;;;;;;5004453;28;20030;-63
2023/05/15 03:13:27;;;;;;;38.08;27.35;;;13.00;99.90;;;;;;5007721;28;20029;-64
2023/05/15 03:15:52;;;;;;;43.63;27.30;;;13.00;99.90;;;;;;4998136;28;20034;-64
2023/05/15 03:18:18;;;;;;;39.45;28.40;;;13.20;99.90;;;;;;5007520;28;20444;-63
2023/05/15 03:20:44;;;;;;;41.90;28.33;;;12.90;99.90;;;;;;5007920;28;20029;-65
2023/05/15 03:23:10;;;;;;;40.45;28.75;;;12.80;99.90;;;;;;5007998;28;20041;-64
2023/05/15 03:25:35;;;;;;;38.95;29.75;;;13.10;99.90;;;;;;5005940;28;20041;-65
2023/05/15 03:28:01;;;;;;;44.97;29.23;;;13.10;99.90;;;;;;5006109;28;20383;-64
2023/05/15 03:30:26;;;;;;;41.90;29.92;;;13.10;99.90;;;;;;5002847;28;20030;-65
2023/05/15 03:32:52;;;;;;;40.38;28.67;;;13.10;99.90;;;;;;5005709;28;20092;-65
2023/05/15 03:35:17;;;;;;;46.40;28.75;;;12.80;99.90;;;;;;5014453;28;20038;-64
2023/05/15 03:37:43;;;;;;;37.50;28.95;;;12.80;99.90;;;;;;5011750;28;20046;-64
2023/05/15 03:40:09;;;;;;;40.17;28.85;;;12.90;99.90;;;;;;5012287;28;20228;-63
2023/05/15 03:42:34;;;;;;;40.80;28.35;;;12.90;99.90;;;;;;5002555;28;20041;-65
2023/05/15 03:45:00;;;;;;;39.80;28.13;;;12.80;99.90;;;;;;5010713;28;20597;-64
2023/05/15 03:47:26;;;;;;;39.60;27.80;;;12.90;99.90;;;;;;5011330;28;20073;-65
2023/05/15 03:49:51;;;;;;;38.38;28.35;;;12.80;99.90;;;;;;5013197;28;20650;-64
2023/05/15 03:52:17;;;;;;;38.08;27.70;;;12.70;99.90;;;;;;5010660;28;20602;-64
2023/05/15 03:54:43;;;;;;;37.38;27.35;;;12.70;99.90;;;;;;5007030;28;20145;-64
2023/05/15 03:57:08;;;;;;;41.17;28.17;;;12.60;99.90;;;;;;5005657;28;20061;-63
2023/05/15 03:59:34;;;;;;;41.58;28.88;;;12.70;99.90;;;;;;4980431;28;20065;-64
2023/05/15 04:01:59;;;;;;;38.40;28.23;;;12.70;99.90;;;;;;5008334;28;20793;-64
2023/05/15 04:04:25;;;;;;;31.90;26.38;;;12.60;99.90;;;;;;5003913;28;20374;-64
2023/05/15 04:06:50;;;;;;;38.45;27.10;;;12.80;99.90;;;;;;4998167;28;20042;-64
2023/05/15 04:09:16;;;;;;;38.30;28.60;;;12.90;99.90;;;;;;4996296;28;20045;-64
2023/05/15 04:11:42;;;;;;;36.03;27.45;;;12.80;99.90;;;;;;5002821;28;20137;-64
2023/05/15 04:14:07;;;;;;;40.58;28.35;;;12.70;99.90;;;;;;5007980;28;20116;-64
2023/05/15 04:16:33;;;;;;;38.95;28.48;;;12.60;99.90;;;;;;5000551;28;20062;-64
2023/05/15 04:18:59;;;;;;;37.35;26.33;;;12.60;99.90;;;;;;5004987;28;20579;-63
2023/05/15 04:21:24;;;;;;;37.92;27.38;;;12.70;99.90;;;;;;5013162;28;20544;-63
2023/05/15 04:23:50;;;;;;;39.60;27.77;;;12.50;99.90;;;;;;5010316;28;20030;-65
2023/05/15 04:26:15;;;;;;;41.88;27.88;;;11.80;99.90;;;;;;5006559;28;20029;-63
2023/05/15 04:28:41;;;;;;;34.60;26.90;;;12.50;99.90;;;;;;5002138;28;20044;-64
2023/05/15 04:31:07;;;;;;;36.40;26.67;;;12.50;99.90;;;;;;5005991;28;20029;-62
2023/05/15 04:33:32;;;;;;;39.95;28.02;;;12.70;99.90;;;;;;5005868;28;20029;-63
2023/05/15 04:35:58;;;;;;;41.30;28.45;;;12.70;99.90;;;;;;5000968;28;20026;-63
2023/05/15 04:38:24;;;;;;;35.33;28.00;;;12.60;99.90;;;;;;5009175;28;20052;-65
2023/05/15 04:40:50;;;;;;;37.85;28.35;;;12.70;99.90;;;;;;5004588;28;20042;-65
2023/05/15 04:43:15;;;;;;;43.10;29.15;;;12.40;99.90;;;;;;5000160;28;20029;-65
2023/05/15 04:45:41;;;;;;;40.53;28.70;;;12.50;99.90;;;;;;5007473;28;20026;-65
2023/05/15 04:48:06;;;;;;;38.25;28.13;;;12.50;99.90;;;;;;5011879;28;20099;-64
2023/05/15 04:50:32;;;;;;;45.70;29.10;;;12.60;99.90;;;;;;5010030;28;20075;-68
2023/05/15 04:52:58;;;;;;;46.13;29.65;;;12.50;99.90;;;;;;5013470;28;20389;-68
2023/05/15 04:55:23;;;;;;;40.28;28.90;;;12.60;99.90;;;;;;5009903;28;20040;-67
2023/05/15 04:57:50;;;;;;;44.13;29.15;;;12.50;99.90;;;;;;5011970;28;20631;-67
2023/05/15 05:00:15;;;;;;;40.42;28.70;;;12.60;99.90;;;;;;5006712;28;20120;-67
2023/05/15 05:02:44;;;;;;;43.92;30.20;;;12.70;99.90;;;;;;5000092;28;21205;-67
2023/05/15 05:05:09;;;;;;;38.38;28.48;;;12.60;99.90;;;;;;5007111;28;20125;-67
2023/05/15 05:07:35;;;;;;;41.78;28.35;;;12.70;99.90;;;;;;5005240;28;21226;-67
2023/05/15 05:10:01;;;;;;;46.60;31.23;;;12.70;99.90;;;;;;5012046;28;20041;-68
2023/05/15 05:12:27;;;;;;;44.10;30.42;;;12.60;99.90;;;;;;5006320;28;20113;-67
2023/05/15 05:14:54;;;;;;;43.13;29.58;;;12.50;99.90;;;;;;5012785;28;20108;-67
2023/05/15 05:17:19;;;;;;;41.55;29.10;;;12.40;99.90;;;;;;5000049;28;20042;-68
2023/05/15 05:19:45;;;;;;;47.63;30.55;;;12.60;99.90;;;;;;5008653;28;20501;-68
2023/05/15 05:22:10;;;;;;;42.67;30.05;;;12.80;99.90;;;;;;5007576;28;20025;-67
2023/05/15 05:24:36;;;;;;;43.95;29.63;;;12.70;99.90;;;;;;5006341;28;20042;-68
2023/05/15 05:27:05;;;;;;;47.20;31.60;;;12.60;99.90;;;;;;5011779;28;20486;-65
2023/05/15 05:29:31;;;;;;;42.88;30.55;;;12.80;99.90;;;;;;5010712;28;20112;-67
2023/05/15 05:31:57;;;;;;;47.08;31.67;;;12.60;99.90;;;;;;5007861;28;20124;-68
2023/05/15 05:34:22;;;;;;;46.92;30.63;;;12.60;99.90;;;;;;5007404;28;20089;-67
2023/05/15 05:36:48;;;;;;;39.67;29.10;;;12.50;99.90;;;;;;5006714;28;20490;-68
2023/05/15 05:39:18;;;;;;;42.17;31.20;;;12.40;99.90;;;;;;5010799;28;20038;-68
2023/05/15 05:41:43;;;;;;;44.28;30.92;;;12.50;99.90;;;;;;5001337;28;20038;-68
2023/05/15 05:44:09;;;;;;;38.83;29.10;;;12.70;99.90;;;;;;5005530;28;20030;-67
2023/05/15 05:46:35;;;;;;;42.35;29.15;;;12.70;99.90;;;;;;5003214;28;20061;-68
2023/05/15 05:49:01;;;;;;;44.72;29.85;;;12.70;99.90;;;;;;5004283;28;20029;-68
2023/05/15 05:51:26;;;;;;;45.65;29.55;;;12.60;99.90;;;;;;5011673;28;20083;-68
2023/05/15 05:53:52;;;;;;;38.97;28.35;;;12.50;99.90;;;;;;5010676;28;20045;-68
2023/05/15 05:56:17;;;;;;;45.83;30.52;;;12.20;99.90;;;;;;5006861;28;20033;-68
2023/05/15 05:58:43;;;;;;;44.45;30.27;;;12.60;99.90;;;;;;5010715;28;20084;-68
2023/05/15 06:01:09;;;;;;;42.85;29.08;;;12.90;99.90;;;;;;5012114;28;20086;-68
2023/05/15 06:03:37;;;;;;;37.95;28.80;;;12.90;99.90;;;;;;5008961;28;20234;-68
2023/05/15 06:06:03;;;;;;;40.05;27.88;;;12.80;99.90;;;;;;5014560;28;20029;-67
2023/05/15 06:08:29;;;;;;;38.42;29.52;;;12.50;99.90;;;;;;5015596;28;20076;-68
2023/05/15 06:10:54;;;;;;;41.25;28.90;;;12.40;99.90;;;;;;5013525;28;20030;-68
2023/05/15 06:13:21;;;;;;;43.13;28.85;;;12.40;99.90;;;;;;4986525;28;20030;-68
2023/05/15 06:15:46;;;;;;;44.75;30.55;;;12.80;99.90;;;;;;5002084;28;20040;-68
2023/05/15 06:18:12;;;;;;;41.95;29.75;;;12.60;99.90;;;;;;4997949;28;20064;-69
2023/05/15 06:20:38;;;;;;;39.85;29.38;;;13.20;99.90;;;;;;5004769;28;20122;-68
2023/05/15 06:23:03;;;;;;;43.00;28.92;;;13.20;99.90;;;;;;5011362;28;20866;-68
2023/05/15 06:25:29;;;;;;;38.70;28.60;;;13.10;44.40;;;;;;5004407;28;20034;-68
2023/05/15 06:27:55;;;;;;;38.75;28.70;;;13.00;99.90;;;;;;5010998;28;20046;-69
2023/05/15 06:30:20;;;;;;;40.08;28.42;;;13.00;99.90;;;;;;5005842;28;20041;-68
2023/05/15 06:32:46;;;;;;;38.45;28.13;;;12.90;99.90;;;;;;5012121;28;20409;-68
2023/05/15 06:35:12;;;;;;;37.58;27.75;;;13.10;99.90;;;;;;5010933;28;20167;-68
2023/05/15 06:37:38;;;;;;;40.20;27.63;;;12.90;80.80;;;;;;4995341;28;20099;-68
2023/05/15 06:40:05;;;;;;;40.53;28.17;;;12.90;99.90;;;;;;5010772;28;20045;-68
2023/05/15 06:42:30;;;;;;;37.13;26.83;;;12.80;94.50;;;;;;5009844;28;20414;-68
2023/05/15 06:44:56;;;;;;;34.55;25.38;;;12.80;17.60;;;;;;5014017;28;20025;-68
2023/05/15 06:47:21;;;;;;;39.35;25.25;;;12.80;1.00;;;;;;5003304;28;20309;-68
2023/05/15 06:49:47;;;;;;;37.08;25.70;;;12.70;1.00;;;;;;5009164;28;20133;-68
2023/05/15 06:52:13;;;;;;;34.65;25.63;;;12.90;1.00;;;;;;5010712;28;20034;-68
2023/05/15 06:54:40;;;;;;;37.08;25.63;;;13.10;1.00;;;;;;5012903;28;20121;-69
2023/05/15 06:57:06;;;;;;;39.88;27.55;;;13.10;1.00;;;;;;5003651;28;20373;-68
2023/05/15 06:59:34;;;;;;;36.53;25.55;;;13.30;1.00;;;;;;5007123;28;20033;-68
2023/05/15 07:02:02;;;;;;;37.20;26.00;;;13.30;1.00;;;;;;5000270;28;20041;-68
2023/05/15 07:04:29;;;;;;;35.08;24.92;;;13.10;1.00;;;;;;5000596;28;20046;-67
2023/05/15 07:06:55;;;;;;;39.33;26.60;;;13.30;1.00;;;;;;5009414;28;20553;-68
2023/05/15 07:09:21;;;;;;;40.53;26.27;;;13.50;1.00;;;;;;5006590;28;20045;-68
2023/05/15 07:11:46;;;;;;;40.33;26.45;;;13.50;1.00;;;;;;4998459;28;20092;-68
2023/05/15 07:14:12;;;;;;;42.83;27.92;;;13.70;1.00;;;;;;5013415;28;20028;-68
2023/05/15 07:16:37;;;;;;;36.35;27.45;;;13.70;1.00;;;;;;5011755;28;20841;-68
2023/05/15 07:19:03;;;;;;;33.75;25.45;;;13.80;1.00;;;;;;5008450;28;20367;-68
2023/05/15 07:21:29;;;;;;;36.78;24.98;;;13.70;1.00;;;;;;5005021;28;20117;-68
2023/05/15 07:23:55;;;;;;;36.80;25.67;;;13.70;1.00;;;;;;5007750;28;20034;-68
2023/05/15 07:26:20;;;;;;;35.42;25.20;;;13.50;1.00;;;;;;5010040;28;20033;-68
2023/05/15 07:28:46;;;;;;;33.80;25.23;;;13.50;1.00;;;;;;5005982;28;20033;-68
2023/05/15 07:31:12;;;;;;;33.20;24.70;;;13.70;1.00;;;;;;4994765;28;20045;-68
2023/05/15 07:33:37;;;;;;;38.88;26.10;;;13.90;99.90;;;;;;5004887;28;20037;-68
2023/05/15 07:36:03;;;;;;;32.67;23.63;;;14.00;99.90;;;;;;5000881;28;20419;-67
2023/05/15 07:38:29;;;;;;;32.30;23.75;;;13.90;99.90;;;;;;4994388;28;20153;-65
2023/05/15 07:40:55;;;;;;;34.95;23.65;;;14.00;99.90;;;;;;5002988;28;20046;-66
2023/05/15 07:43:20;;;;;;;32.33;24.85;;;14.00;99.90;;;;;;5008543;28;20037;-65
2023/05/15 07:45:46;;;;;;;29.75;23.30;;;14.20;99.90;;;;;;5009642;28;20223;-65
2023/05/15 07:48:19;;;;;;;30.35;23.92;;;14.10;99.90;;;;;;5005854;28;20034;-65
2023/05/15 07:50:46;;;;;;;35.28;25.23;;;14.30;99.90;;;;;;5002478;28;20052;-68
2023/05/15 07:53:12;;;;;;;33.38;24.92;;;14.30;99.90;;;;;;5004058;28;20087;-68
2023/05/15 07:55:39;;;;;;;35.05;25.75;;;14.20;99.90;;;;;;5003676;28;20041;-68
2023/05/15 07:58:05;;;;;;;36.85;25.58;;;14.40;99.90;;;;;;5008392;28;20033;-68
2023/05/15 08:00:30;;;;;;;35.70;25.73;;;15.20;99.90;;;;;;5004867;28;20489;-68
2023/05/15 08:02:57;;;;;;;34.15;24.65;;;14.70;99.90;;;;;;5003537;28;20037;-68
2023/05/15 08:05:22;;;;;;;32.55;23.38;;;14.70;99.90;;;;;;5001573;28;20037;-68
2023/05/15 08:07:48;;;;;;;30.92;22.77;;;14.70;99.90;;;;;;5002581;28;20049;-69
2023/05/15 08:10:13;;;;;;;31.60;23.95;;;14.60;99.90;;;;;;5006746;28;20089;-68
2023/05/15 08:12:44;;;;;;;31.05;23.67;;;14.50;99.90;;;;;;5003529;28;20067;-68
2023/05/15 08:15:11;;;;;;;31.15;22.80;;;14.70;99.90;;;;;;4999829;28;20092;-68
2023/05/15 08:17:36;;;;;;;35.60;28.65;;;14.50;99.90;;;;;;4993749;28;20042;-68
2023/05/15 08:20:03;;;;;;;35.22;24.80;;;14.70;99.90;;;;;;4991195;28;20040;-66
2023/05/15 08:22:29;;;;;;;31.98;24.27;;;14.80;99.90;;;;;;5001477;28;20091;-67
2023/05/15 08:24:55;;;;;;;32.38;24.42;;;15.00;90.40;;;;;;5001275;28;20529;-67
2023/05/15 08:27:20;;;;;;;34.42;24.90;;;15.10;99.90;;;;;;5001652;28;20453;-67
2023/05/15 08:29:46;;;;;;;29.23;23.55;;;15.00;1.00;;;;;;4995649;28;20188;-67
2023/05/15 08:32:11;;;;;;;32.80;23.08;;;15.00;1.00;;;;;;4980935;28;20034;-67
2023/05/15 08:34:37;;;;;;;28.73;22.40;;;14.80;1.00;;;;;;5000712;28;20029;-67
2023/05/15 08:37:03;;;;;;;34.17;22.75;;;15.00;1.00;;;;;;4996291;28;20579;-67
2023/05/15 08:39:29;;;;;;;28.63;21.92;;;15.20;99.90;;;;;;4999044;28;20453;-67
2023/05/15 08:41:56;;;;;;;29.40;22.90;;;15.10;99.90;;;;;;5001791;28;20034;-67
2023/05/15 08:44:22;;;;;;;31.92;22.35;;;15.30;1.00;;;;;;5000270;28;20198;-67
2023/05/15 08:46:48;;;;;;;28.23;21.33;;;15.20;99.90;;;;;;5003260;28;20038;-67
2023/05/15 08:49:28;;;;;;;27.17;20.98;;;15.30;99.90;;;;;;4999965;28;20041;-67
2023/05/15 08:51:55;;;;;;;29.63;21.30;;;15.60;99.90;;;;;;4990189;28;20090;-67
2023/05/15 08:54:21;;;;;;;30.55;20.33;;;15.60;99.90;;;;;;5002171;28;20074;-67
2023/05/15 08:56:46;;;;;;;30.40;20.27;;;15.80;99.90;;;;;;4995742;28;20050;-67
2023/05/15 08:59:12;;;;;;;32.42;23.00;;;15.70;99.90;;;;;;4973056;28;20058;-67
2023/05/15 09:01:38;;;;;;;27.40;19.88;;;15.50;1.00;;;;;;4995029;28;20030;-67
2023/05/15 09:04:03;;;;;;;27.05;19.52;;;15.80;1.00;;;;;;5002395;28;20053;-66
2023/05/15 09:06:31;;;;;;;25.63;18.15;;;15.60;1.00;;;;;;4997227;28;20030;-67
2023/05/15 09:08:59;;;;;;;24.58;18.23;;;15.70;99.90;;;;;;5004158;28;20121;-67
2023/05/15 09:11:27;;;;;;;25.75;19.05;;;15.80;1.00;;;;;;5010525;28;20482;-67
2023/05/15 09:13:57;;;;;;;27.90;19.23;;;15.90;1.00;;;;;;5006940;28;20026;-68
2023/05/15 09:16:23;;;;;;;30.65;20.25;;;16.10;99.90;;;;;;4997892;28;20332;-67
2023/05/15 09:18:49;;;;;;;28.77;21.42;;;16.20;99.90;;;;;;5002597;28;20034;-67
2023/05/15 09:21:30;;;;;;;30.98;20.33;;;16.30;1.00;;;;;;5000542;28;20100;-67
2023/05/15 09:24:23;;;;;;;23.48;19.70;;;16.40;1.00;;;;;;4998977;28;20034;-67
2023/05/15 09:27:05;;;;;;;28.00;20.77;;;16.60;1.00;;;;;;4999213;28;20045;-67
2023/05/15 09:29:32;;;;;;;21.83;17.00;;;16.50;1.00;;;;;;4997869;28;20568;-67
2023/05/15 09:32:03;;;;;;;24.83;18.58;;;16.40;99.90;;;;;;5003625;28;20045;-67
2023/05/15 09:34:30;;;;;;;24.08;16.90;;;16.60;1.00;;;;;;5001625;28;20458;-67
2023/05/15 09:36:56;;;;;;;23.73;17.58;;;16.70;11.00;;;;;;5002951;28;20050;-67
2023/05/15 09:39:22;;;;;;;28.92;18.77;;;16.60;1.00;;;;;;5001544;28;20041;-67
2023/05/15 09:41:47;;;;;;;27.90;18.77;;;16.60;99.90;;;;;;5003662;28;20436;-67
2023/05/15 09:44:24;;;;;;;25.48;18.20;;;16.70;1.00;;;;;;5005684;28;20042;-67
2023/05/15 09:46:50;;;;;;;26.35;17.23;;;16.90;1.00;;;;;;5002176;28;20063;-67
2023/05/15 09:49:16;;;;;;;22.10;15.07;;;17.40;99.90;;;;;;5006764;28;20100;-67
2023/05/15 09:51:43;;;;;;;21.63;15.75;;;17.20;99.90;;;;;;5000486;28;20540;-67
2023/05/15 09:54:15;;;;;;;21.48;16.05;;;17.20;1.00;;;;;;5001037;28;20034;-66
2023/05/15 09:56:45;;;;;;;19.92;15.77;;;17.20;1.00;;;;;;5006105;28;20051;-67
2023/05/15 09:59:18;;;;;;;21.00;15.85;;;17.20;1.00;;;;;;4995143;28;20030;-66
2023/05/15 10:01:45;;;;;;;20.37;13.90;;;17.50;45.50;;;;;;5001328;28;20044;-67
2023/05/15 10:04:11;;;;;;;21.83;15.32;;;17.40;1.00;;;;;;5002697;28;20681;-67
2023/05/15 10:06:47;;;;;;;20.75;16.08;;;17.50;1.00;;;;;;4997435;28;20394;-67
2023/05/15 10:09:14;;;;;;;24.27;16.05;;;17.70;1.00;;;;;;5004551;28;20060;-67
2023/05/15 10:11:48;;;;;;;23.52;15.70;;;17.80;92.10;;;;;;4998076;28;20041;-68
2023/05/15 10:14:15;;;;;;;21.90;17.40;;;18.50;5.00;;;;;;4997261;28;20034;-67
2023/05/15 10:16:41;;;;;;;21.23;16.48;;;17.50;1.00;;;;;;4998808;28;20034;-67
2023/05/15 10:19:09;;;;;;;23.92;17.45;;;17.40;99.90;;;;;;4983142;28;20045;-66
2023/05/15 10:21:38;;;;;;;26.15;18.92;;;17.50;1.00;;;;;;4974261;28;20057;-67
2023/05/15 10:24:04;;;;;;;23.50;18.40;;;17.50;99.90;;;;;;5002563;28;20084;-67
2023/05/15 10:26:38;;;;;;;22.90;17.65;;;17.70;68.90;;;;;;5003585;28;20486;-68
2023/05/15 10:29:16;;;;;;;27.60;18.88;;;17.70;99.90;;;;;;5007220;28;20033;-67
2023/05/15 10:31:42;;;;;;;23.95;18.27;;;17.70;1.00;;;;;;5005940;28;20038;-67
2023/05/15 10:34:09;;;;;;;23.98;17.88;;;17.90;6.40;;;;;;5006965;28;20042;-67
2023/05/15 10:36:35;;;;;;;23.83;15.15;;;17.90;1.00;;;;;;5001452;28;20042;-67
2023/05/15 10:39:04;;;;;;;21.92;14.57;;;17.90;1.00;;;;;;5006060;28;20091;-67
2023/05/15 10:41:34;;;;;;;21.17;15.95;;;18.00;1.00;;;;;;5000916;28;20117;-58
2023/05/15 10:44:00;;;;;;;21.00;14.95;;;18.00;1.00;;;;;;5007386;28;20029;-57
2023/05/15 10:46:27;;;;;;;19.10;12.50;;;18.20;1.00;;;;;;5007162;28;20529;-57
2023/05/15 10:48:53;;;;;;;15.40;11.90;;;18.20;1.00;;;;;;5008917;28;20478;-58
2023/05/15 10:51:30;;;;;;;21.50;13.85;;;18.20;99.90;;;;;;5000161;28;20053;-58
2023/05/15 10:53:56;;;;;;;24.55;16.05;;;18.00;1.00;;;;;;5005032;28;20618;-57
2023/05/15 10:56:41;;;;;;;20.10;14.75;;;18.10;1.00;;;;;;5013541;28;20038;-58
2023/05/15 10:59:08;;;;;;;20.90;14.10;;;18.30;99.90;;;;;;5002897;28;20042;-58
2023/05/15 11:01:39;;;;;;;17.23;13.45;;;18.30;99.90;;;;;;4997341;28;20049;-57
2023/05/15 11:04:06;;;;;;;20.48;14.55;;;18.40;1.00;;;;;;4996829;28;20038;-58
2023/05/15 11:06:32;;;;;;;17.77;12.73;;;18.40;1.00;;;;;;4992441;28;20045;-57
2023/05/15 11:09:25;;;;;;;16.27;12.02;;;18.50;1.00;;;;;;4994667;28;20093;-58
2023/05/15 11:11:51;;;;;;;18.42;13.68;;;18.40;99.90;;;;;;5001324;28;20164;-58
2023/05/15 11:14:17;;;;;;;19.75;13.65;;;18.50;99.90;;;;;;5001893;28;20464;-58
2023/05/15 11:16:52;;;;;;;17.65;12.98;;;18.70;99.90;;;;;;5003490;28;20041;-58
2023/05/15 11:19:24;;;;;;;21.10;15.05;;;18.80;99.90;;;;;;4997377;28;20205;-58
2023/05/15 11:21:59;;;;;;;20.40;14.75;;;18.80;1.00;;;;;;5002987;28;20045;-58
2023/05/15 11:24:45;;;;;;;20.00;14.45;;;18.60;1.00;;;;;;4999280;28;20453;-57
2023/05/15 11:27:15;;;;;;;18.27;12.63;;;18.70;99.90;;;;;;4996756;28;21581;-58
2023/05/15 11:30:03;;;;;;;15.90;11.60;;;18.80;1.00;;;;;;4998779;28;20029;-58
2023/05/15 11:32:43;;;;;;;13.00;11.43;;;18.90;99.90;;;;;;4998991;28;20033;-58
2023/05/15 11:35:10;;;;;;;16.52;10.73;;;18.90;99.90;;;;;;4998751;28;20132;-58
2023/05/15 11:37:41;;;;;;;16.30;10.50;;;18.40;99.90;;;;;;4998433;28;20227;-58
2023/05/15 11:40:08;;;;;;;18.13;11.35;;;18.90;99.90;;;;;;4993523;28;20139;-58
2023/05/15 11:42:33;;;;;;;13.18;9.15;;;18.90;99.90;;;;;;5006248;28;20553;-58
2023/05/15 11:44:59;;;;;;;17.42;10.45;;;19.10;99.90;;;;;;5009034;28;20116;-57
2023/05/15 11:47:25;;;;;;;13.43;10.55;;;18.90;34.90;;;;;;5002883;28;20037;-57
2023/05/15 11:49:52;;;;;;;14.45;9.15;;;19.00;99.90;;;;;;5005507;28;20037;-58
2023/05/15 11:52:17;;;;;;;16.05;9.57;;;19.10;99.90;;;;;;5007489;28;20030;-58
2023/05/15 11:54:43;;;;;;;14.63;11.70;;;19.00;1.00;;;;;;5000880;28;20041;-57
2023/05/15 11:57:09;;;;;;;13.80;11.55;;;19.00;1.00;;;;;;4982408;28;20042;-58
2023/05/15 11:59:34;;;;;;;15.38;11.80;;;19.30;3.10;;;;;;5004002;28;20041;-58
2023/05/15 12:02:00;;;;;;;15.02;12.25;;;19.40;99.90;;;;;;5001537;28;20034;-58
2023/05/15 12:04:26;;;;;;;20.13;14.18;;;19.30;99.90;;;;;;4998428;28;20030;-58
2023/05/15 12:06:51;;;;;;;17.92;15.18;;;19.50;1.00;;;;;;5004248;28;20034;-58
2023/05/15 12:09:26;;;;;;;19.05;14.63;;;19.30;1.00;;;;;;4975832;28;20037;-57
2023/05/15 12:11:52;;;;;;;17.73;12.63;;;19.70;1.00;;;;;;4998589;28;20045;-58
2023/05/15 12:14:26;;;;;;;13.43;11.63;;;19.30;99.90;;;;;;4990969;28;20115;-58
2023/05/15 12:16:52;;;;;;;15.65;12.70;;;19.20;54.00;;;;;;4999650;28;20120;-58
2023/05/15 12:19:17;;;;;;;14.63;12.13;;;19.40;99.90;;;;;;4997945;28;20117;-58
2023/05/15 12:21:46;;;;;;;16.98;13.52;;;19.40;99.90;;;;;;5001753;28;20040;-58
2023/05/15 12:24:12;;;;;;;15.75;12.48;;;19.30;99.90;;;;;;5000399;28;20044;-58
2023/05/15 12:26:38;;;;;;;13.35;11.00;;;19.30;99.90;;;;;;5000958;28;20398;-57
2023/05/15 12:29:05;;;;;;;14.90;10.25;;;19.30;1.00;;;;;;5006297;28;20116;-58
2023/05/15 12:31:33;;;;;;;13.38;10.27;;;18.90;1.00;;;;;;5003936;28;20031;-58